Time;durP1;ratioP1;P1;durP2;ratioP2;P2;SDS_P1;SDS_P2;PMS_P1;PMS_P2;Temp;Humidity;BMP_temperature;BMP_pressure;BME280_temperature;BME280_humidity;BME280_pressure;Samples;Min_cycle;Max_cycle;Signal;HPM_P1;HPM_P2
2022/06/21 00:00:32;;;;;;;5.95;2.83;;;;;;;15.81;72.79;100080.06;5033870;28;20451;-55
2022/06/21 00:03:06;;;;;;;8.75;3.95;;;;;;;15.81;72.26;100078.31;5034228;28;20406;-52
2022/06/21 00:05:37;;;;;;;7.65;3.55;;;;;;;15.84;72.47;100074.72;5034434;28;20050;-54
2022/06/21 00:08:16;;;;;;;8.10;2.83;;;;;;;15.84;72.24;100082.56;5033988;28;20067;-52
2022/06/21 00:10:46;;;;;;;6.90;2.97;;;;;;;15.82;72.21;100080.03;5032788;28;20037;-55
2022/06/21 00:13:21;;;;;;;4.80;2.30;;;;;;;15.80;72.20;100073.16;5033869;28;20041;-54
2022/06/21 00:15:57;;;;;;;5.53;2.67;;;;;;;15.77;71.97;100076.75;5033797;28;20603;-54
2022/06/21 00:18:27;;;;;;;5.68;2.25;;;;;;;15.71;72.20;100077.84;5033338;28;20132;-52
2022/06/21 00:20:56;;;;;;;6.05;2.33;;;;;;;15.69;71.88;100074.44;5033634;28;20064;-55
2022/06/21 00:23:35;;;;;;;3.78;2.00;;;;;;;15.65;72.14;100072.84;5032681;28;20063;-52
2022/06/21 00:26:05;;;;;;;4.47;2.00;;;;;;;15.61;71.87;100081.72;5033013;28;20060;-52
2022/06/21 00:28:35;;;;;;;3.25;1.50;;;;;;;15.62;71.90;100083.44;5033819;28;20069;-55
2022/06/21 00:31:03;;;;;;;5.70;2.08;;;;;;;15.63;71.93;100074.69;5033465;28;20534;-53
2022/06/21 00:33:34;;;;;;;5.03;2.35;;;;;;;15.65;71.96;100067.63;5033659;28;20129;-54
2022/06/21 00:36:05;;;;;;;5.05;2.40;;;;;;;15.68;71.67;100072.72;5017216;28;20423;-55
2022/06/21 00:38:47;;;;;;;6.95;1.90;;;;;;;15.69;71.74;100073.59;5013961;28;20058;-54
2022/06/21 00:41:20;;;;;;;5.07;2.05;;;;;;;15.68;71.71;100067.50;5026508;28;20427;-55
2022/06/21 00:43:51;;;;;;;4.65;2.42;;;;;;;15.68;71.50;100067.50;5033402;28;20057;-55
2022/06/21 00:46:31;;;;;;;4.32;1.95;;;;;;;15.69;71.66;100069.22;5032943;28;20061;-55
2022/06/21 00:49:00;;;;;;;5.13;2.28;;;;;;;15.68;71.75;100062.28;5033088;28;20060;-54
2022/06/21 00:51:34;;;;;;;4.35;1.88;;;;;;;15.67;71.64;100065.81;5033665;28;20148;-55
2022/06/21 00:54:12;;;;;;;5.07;2.40;;;;;;;15.67;71.34;100065.81;5032475;28;20046;-55
2022/06/21 00:56:46;;;;;;;4.10;2.10;;;;;;;15.64;71.30;100065.94;5033600;28;20132;-51
2022/06/21 00:59:19;;;;;;;5.03;1.77;;;;;;;15.63;71.43;100069.47;5033109;28;20087;-55
2022/06/21 01:01:51;;;;;;;5.32;1.60;;;;;;;15.61;71.56;100067.81;5033218;28;20068;-54
2022/06/21 01:04:32;;;;;;;3.13;1.35;;;;;;;15.59;71.44;100070.47;5032756;28;20049;-55
2022/06/21 01:07:06;;;;;;;4.55;1.88;;;;;;;15.57;71.64;100069.63;5033259;28;20053;-55
2022/06/21 01:09:42;;;;;;;3.17;1.77;;;;;;;15.54;71.32;100068.91;5033212;28;20049;-55
2022/06/21 01:12:20;;;;;;;3.80;1.58;;;;;;;15.54;71.64;100068.91;5031740;28;20046;-54
2022/06/21 01:14:54;;;;;;;4.97;1.65;;;;;;;15.54;71.61;100079.34;5032771;28;20053;-54
2022/06/21 01:17:23;;;;;;;3.47;1.50;;;;;;;15.50;71.75;100072.56;5013321;28;20089;-55
2022/06/21 01:20:00;;;;;;;5.03;1.20;;;;;;;15.39;71.36;100072.97;5019076;28;20081;-56
2022/06/21 01:22:44;;;;;;;4.50;1.45;;;;;;;15.30;71.88;100070.72;5031401;28;20107;-55
2022/06/21 01:25:35;;;;;;;3.88;1.58;;;;;;;15.21;71.99;100071.06;5031335;28;20056;-52
2022/06/21 01:28:09;;;;;;;2.65;0.95;;;;;;;15.08;72.21;100068.88;5033083;28;20064;-55
2022/06/21 01:30:38;;;;;;;3.95;1.27;;;;;;;15.00;72.36;100068.31;5033070;28;20057;-55
2022/06/21 01:33:06;;;;;;;1.90;1.00;;;;;;;14.97;72.11;100071.06;5032695;28;20064;-55
2022/06/21 01:35:43;;;;;;;2.28;1.10;;;;;;;14.89;73.68;100069.63;5032237;28;20056;-55
2022/06/21 01:38:18;;;;;;;4.70;1.20;;;;;;;14.86;72.35;100065.38;5032475;28;20140;-55
2022/06/21 01:40:57;;;;;;;4.03;1.10;;;;;;;14.84;72.44;100067.19;5032774;28;20053;-54
2022/06/21 01:43:29;;;;;;;3.75;1.05;;;;;;;14.88;72.35;100063.56;5032456;28;20477;-52
2022/06/21 01:46:04;;;;;;;2.10;1.10;;;;;;;14.89;72.31;100060.03;5031699;28;20553;-52
2022/06/21 01:48:39;;;;;;;3.17;1.20;;;;;;;14.92;72.36;100062.53;5032358;28;20385;-52
2022/06/21 01:51:09;;;;;;;;;;;;;;;14.91;71.98;100062.59;5032808;28;20057;-52
2022/06/21 01:53:37;;;;;;;3.38;1.20;;;;;;;14.95;71.96;100054.59;5032623;28;19935;-55
2022/06/21 01:56:13;;;;;;;3.35;1.27;;;;;;;15.00;71.95;100057.03;5032788;28;20045;-52
2022/06/21 01:58:49;;;;;;;2.33;0.93;;;;;;;14.99;72.11;100053.56;5032387;28;20434;-55
2022/06/21 02:01:24;;;;;;;3.20;1.08;;;;;;;15.00;72.04;100063.09;5031946;28;20107;-55
2022/06/21 02:03:59;;;;;;;3.20;1.10;;;;;;;14.96;71.65;100060.66;5032349;28;20054;-55
2022/06/21 02:06:32;;;;;;;2.40;1.00;;;;;;;14.96;72.16;100061.53;5032572;28;20053;-55
2022/06/21 02:09:09;;;;;;;3.17;0.93;;;;;;;14.93;72.20;100061.63;5032018;28;20053;-55
2022/06/21 02:11:44;;;;;;;3.92;1.05;;;;;;;14.93;72.22;100051.19;5028919;28;20053;-55
2022/06/21 02:14:34;;;;;;;2.17;1.45;;;;;;;14.94;71.95;100047.69;5032483;28;20049;-55
2022/06/21 02:17:15;;;;;;;2.22;1.27;;;;;;;14.94;71.99;100052.03;5031106;28;20387;-55
2022/06/21 02:19:52;;;;;;;2.55;1.02;;;;;;;14.94;72.07;100052.91;5032243;28;20060;-55
2022/06/21 02:22:21;;;;;;;2.55;1.02;;;;;;;14.96;71.94;100050.22;5031905;28;20057;-55
2022/06/21 02:24:52;;;;;;;1.77;0.95;;;;;;;14.97;71.58;100052.78;5032161;28;20095;-55
2022/06/21 02:27:23;;;;;;;1.42;0.88;;;;;;;14.94;71.52;100052.91;5032036;28;20068;-51
2022/06/21 02:29:59;;;;;;;3.58;1.20;;;;;;;14.92;71.69;100049.50;5032151;28;20053;-55
2022/06/21 02:32:30;;;;;;;2.38;1.05;;;;;;;14.90;71.41;100043.47;5033419;28;20049;-55
2022/06/21 02:35:07;;;;;;;5.13;0.90;;;;;;;14.89;71.88;100041.78;5034951;28;20134;-55
2022/06/21 02:37:37;;;;;;;2.10;0.80;;;;;;;14.91;71.85;100044.34;5036048;28;20046;-53
2022/06/21 02:40:09;;;;;;;2.92;1.00;;;;;;;14.93;71.53;100048.59;5036203;28;20053;-55
2022/06/21 02:42:41;;;;;;;2.22;0.82;;;;;;;14.93;71.37;100045.97;5034303;28;20148;-51
2022/06/21 02:45:27;;;;;;;1.98;0.80;;;;;;;14.95;71.58;100048.53;5035619;28;20409;-52
2022/06/21 02:48:05;;;;;;;2.63;1.05;;;;;;;14.95;71.23;100049.38;5035467;28;20054;-55
2022/06/21 02:50:40;;;;;;;1.35;0.73;;;;;;;14.95;71.42;100049.38;5034317;28;20136;-55
2022/06/21 02:53:16;;;;;;;3.80;0.80;;;;;;;14.91;71.27;100047.78;5025029;28;20060;-55
2022/06/21 02:55:59;;;;;;;1.70;0.82;;;;;;;14.86;71.06;100054.94;5035396;28;20462;-53
2022/06/21 02:58:29;;;;;;;2.17;0.65;;;;;;;14.83;70.83;100049.84;5035954;28;20069;-54
2022/06/21 03:01:08;;;;;;;2.80;0.90;;;;;;;14.82;70.99;100051.59;5034121;28;22253;-53
2022/06/21 03:03:39;;;;;;;1.00;0.60;;;;;;;14.82;70.80;100048.97;5033776;28;20132;-54
2022/06/21 03:06:19;;;;;;;1.58;0.60;;;;;;;14.82;70.88;100043.75;5035756;28;20132;-55
2022/06/21 03:08:55;;;;;;;2.95;0.70;;;;;;;14.79;70.75;100043.88;5035672;28;20049;-55
2022/06/21 03:11:27;;;;;;;2.42;0.63;;;;;;;14.77;70.60;100039.63;5035406;28;20050;-55
2022/06/21 03:14:04;;;;;;;1.63;0.40;;;;;;;14.76;70.30;100036.16;5034533;28;20068;-53
2022/06/21 03:16:48;;;;;;;1.52;0.57;;;;;;;14.75;70.17;100044.03;5035160;28;20053;-51
2022/06/21 03:19:30;;;;;;;1.08;0.55;;;;;;;14.73;69.91;100043.25;5035389;28;20045;-52
2022/06/21 03:21:57;;;;;;;1.05;0.57;;;;;;;14.71;69.93;100045.91;5034333;28;20365;-53
2022/06/21 03:24:27;;;;;;;1.45;0.50;;;;;;;14.72;70.21;100057.22;5035094;28;20470;-52
2022/06/21 03:27:05;;;;;;;1.90;0.70;;;;;;;14.72;70.21;100052.00;5034879;28;20378;-52
2022/06/21 03:29:35;;;;;;;1.42;0.60;;;;;;;14.73;70.32;100051.09;5035116;28;20072;-55
2022/06/21 03:32:15;;;;;;;0.93;0.50;;;;;;;14.71;69.97;100051.13;5033664;28;20504;-54
2022/06/21 03:34:45;;;;;;;1.65;0.75;;;;;;;14.71;69.98;100058.13;5021768;28;20064;-54
2022/06/21 03:37:16;;;;;;;3.67;0.60;;;;;;;14.71;69.89;100058.13;5035108;28;20053;-55
2022/06/21 03:42:32;;;;;;;1.30;0.73;;;;;;;14.72;70.16;100067.63;5034324;28;20508;-54
2022/06/21 03:45:05;;;;;;;2.33;0.90;;;;;;;14.74;70.73;100065.81;5034193;28;20399;-52
2022/06/21 03:47:42;;;;;;;3.03;0.88;;;;;;;14.74;70.49;100060.59;5035229;28;20068;-54
2022/06/21 03:50:18;;;;;;;1.08;0.70;;;;;;;14.72;70.31;100065.03;5033358;28;20131;-54
2022/06/21 03:52:56;;;;;;;3.70;0.90;;;;;;;14.71;70.34;100063.34;5034831;28;20053;-52
2022/06/21 03:55:36;;;;;;;2.17;0.77;;;;;;;14.68;70.52;100060.84;5024900;28;20463;-54
2022/06/21 03:58:10;;;;;;;1.52;0.68;;;;;;;14.62;70.39;100056.69;5034383;28;20492;-54
2022/06/21 04:00:45;;;;;;;1.73;0.75;;;;;;;14.62;70.60;100066.28;5034475;28;20088;-55
2022/06/21 04:03:20;;;;;;;2.13;1.00;;;;;;;14.61;70.49;100059.34;5033407;28;20542;-51
2022/06/21 04:05:54;;;;;;;1.50;0.65;;;;;;;14.61;70.56;100064.56;5020006;28;20487;-50
2022/06/21 04:08:27;;;;;;;1.60;0.95;;;;;;;14.62;70.44;100061.06;5034298;28;20060;-51
2022/06/21 04:11:06;;;;;;;1.27;0.57;;;;;;;14.64;70.12;100064.47;5034338;28;20358;-51
2022/06/21 04:13:44;;;;;;;2.08;0.68;;;;;;;14.64;70.51;100065.31;5034500;28;20132;-51
2022/06/21 04:16:19;;;;;;;2.72;0.80;;;;;;;14.66;70.24;100062.66;5034001;28;20060;-55
2022/06/21 04:18:55;;;;;;;2.60;0.85;;;;;;;14.68;70.01;100060.84;5033982;28;20059;-55
2022/06/21 04:21:28;;;;;;;2.60;0.68;;;;;;;14.68;70.42;100055.63;5034187;28;20154;-53
2022/06/21 04:24:01;;;;;;;1.40;0.80;;;;;;;14.66;70.20;100049.59;5034384;28;20053;-54
2022/06/21 04:26:37;;;;;;;2.72;0.88;;;;;;;14.62;70.34;100050.63;5033831;28;20068;-54
2022/06/21 04:29:14;;;;;;;2.70;0.80;;;;;;;14.58;70.79;100051.63;5034163;28;20103;-55
2022/06/21 04:31:47;;;;;;;2.75;1.00;;;;;;;14.55;70.86;100049.09;5034100;28;20049;-52
2022/06/21 04:34:21;;;;;;;2.15;0.90;;;;;;;14.56;70.72;100050.81;5033198;28;20391;-51
2022/06/21 04:36:52;;;;;;;3.10;1.08;;;;;;;14.64;70.97;100046.19;5034150;28;20061;-54
2022/06/21 04:39:24;;;;;;;2.47;0.90;;;;;;;14.72;71.07;100044.16;5032825;28;20053;-53
2022/06/21 04:41:58;;;;;;;2.70;1.30;;;;;;;14.87;71.16;100059.25;5033527;28;20042;-54
2022/06/21 04:44:35;;;;;;;2.55;1.30;;;;;;;15.06;70.99;100064.63;5033794;28;20049;-52
2022/06/21 04:47:13;;;;;;;2.17;1.10;;;;;;;15.15;70.64;100062.56;5032969;28;20417;-54
2022/06/21 04:49:59;;;;;;;2.13;0.90;;;;;;;15.25;70.21;100062.22;5033343;28;20540;-54
2022/06/21 04:52:35;;;;;;;1.80;1.05;;;;;;;15.30;70.05;100065.50;5033409;28;20041;-53
2022/06/21 04:55:03;;;;;;;1.77;0.77;;;;;;;15.36;69.65;100065.25;5032765;28;20108;-53
2022/06/21 04:57:33;;;;;;;2.00;0.85;;;;;;;15.41;69.53;100068.53;5033346;28;20064;-55
2022/06/21 05:00:06;;;;;;;2.58;0.95;;;;;;;15.51;69.29;100064.66;5033184;28;20485;-54
2022/06/21 05:02:41;;;;;;;1.98;0.93;;;;;;;15.66;69.47;100074.56;5032472;28;20064;-54
2022/06/21 05:05:13;;;;;;;;;;;;;;;15.71;69.18;100070.00;5033659;28;20049;-55
2022/06/21 05:07:48;;;;;;;2.97;1.00;;;;;;;15.94;68.83;100068.22;5033336;28;19925;-54
2022/06/21 05:10:20;;;;;;;2.00;0.90;;;;;;;16.25;68.07;100062.56;5033301;28;20085;-54
2022/06/21 05:12:52;;;;;;;3.67;1.00;;;;;;;16.53;67.72;100054.38;5031999;28;20085;-51
2022/06/21 05:15:26;;;;;;;1.85;0.93;;;;;;;16.80;66.71;100050.59;5032817;28;20049;-52
2022/06/21 05:18:05;;;;;;;2.40;0.90;;;;;;;17.13;65.81;100047.38;5030485;28;20071;-52
2022/06/21 05:20:51;;;;;;;2.28;0.82;;;;;;;17.52;64.89;100058.63;5033242;28;20137;-54
2022/06/21 05:23:27;;;;;;;3.08;0.73;;;;;;;17.77;64.33;100050.47;5031396;28;20057;-53
2022/06/21 05:25:57;;;;;;;2.28;0.77;;;;;;;18.10;63.24;100053.19;5028068;28;20071;-55
2022/06/21 05:28:37;;;;;;;2.47;0.70;;;;;;;18.25;62.16;100047.19;5032738;28;20106;-54
2022/06/21 05:31:14;;;;;;;2.00;0.70;;;;;;;18.53;61.19;100048.41;5032888;28;20049;-54
2022/06/21 05:33:49;;;;;;;2.53;0.70;;;;;;;18.66;60.15;100046.84;5032207;28;20441;-54
2022/06/21 05:36:36;;;;;;;1.48;0.65;;;;;;;18.86;59.15;100041.41;5032726;28;20046;-54
2022/06/21 05:39:11;;;;;;;0.90;0.60;;;;;;;19.05;58.43;100040.44;5032516;28;20146;-53
2022/06/21 05:41:43;;;;;;;3.30;0.80;;;;;;;19.23;57.47;100042.03;5031581;28;20058;-52
2022/06/21 05:44:14;;;;;;;2.22;0.70;;;;;;;19.42;57.24;100053.25;5032684;28;20046;-51
2022/06/21 05:46:46;;;;;;;3.15;0.90;;;;;;;19.66;56.51;100051.06;5032168;28;20057;-51
2022/06/21 05:49:29;;;;;;;2.38;0.60;;;;;;;19.89;55.21;100048.91;5032727;28;20053;-55
2022/06/21 05:52:02;;;;;;;2.38;0.68;;;;;;;20.05;54.86;100042.66;5032544;28;20053;-52
2022/06/21 05:54:33;;;;;;;3.35;0.70;;;;;;;20.22;54.15;100048.72;5032609;28;20421;-53
2022/06/21 05:57:05;;;;;;;5.57;0.73;;;;;;;20.29;53.41;100050.06;5032722;28;20061;-54
2022/06/21 05:59:36;;;;;;;2.22;0.50;;;;;;;20.38;53.27;100055.66;5031051;28;20148;-54
2022/06/21 06:02:12;;;;;;;5.40;0.88;;;;;;;20.50;52.79;100059.34;5032434;28;20064;-55
2022/06/21 06:04:46;;;;;;;3.42;0.68;;;;;;;20.63;51.78;100055.03;5032918;28;20049;-54
2022/06/21 06:07:25;;;;;;;1.45;0.57;;;;;;;20.72;51.31;100059.75;5036663;28;20150;-55
2022/06/21 06:09:56;;;;;;;2.88;0.65;;;;;;;20.91;51.01;100063.91;5036659;28;20153;-51
2022/06/21 06:12:26;;;;;;;2.67;0.60;;;;;;;21.09;50.27;100060.13;5036325;28;20050;-52
2022/06/21 06:14:59;;;;;;;3.97;0.57;;;;;;;21.26;49.58;100054.66;5034703;28;20045;-51
2022/06/21 06:17:35;;;;;;;3.45;0.70;;;;;;;21.38;48.87;100059.19;5029360;28;20053;-52
2022/06/21 06:20:15;;;;;;;8.73;0.65;;;;;;;21.56;48.10;100051.88;5036442;28;20087;-53
2022/06/21 06:22:49;;;;;;;7.15;1.00;;;;;;;21.60;48.19;100063.09;5034728;28;20045;-54
2022/06/21 06:25:24;;;;;;;2.40;0.90;;;;;;;21.55;47.88;100066.03;5028548;28;20347;-50
2022/06/21 06:28:07;;;;;;;3.80;0.60;;;;;;;21.43;47.69;100066.81;5035858;28;20136;-51
2022/06/21 06:33:30;;;;;;;1.42;0.30;;;;;;;21.21;47.99;100096.25;5035127;28;20060;-50
2022/06/21 06:36:10;;;;;;;5.70;0.60;;;;;;;21.14;47.75;100092.31;5034616;28;20057;-50
2022/06/21 06:39:04;;;;;;;7.75;0.57;;;;;;;21.23;46.97;100099.69;5032258;28;20045;-49
2022/06/21 06:41:39;;;;;;;0.98;0.40;;;;;;;21.28;47.54;100110.78;5031342;28;20601;-50
2022/06/21 06:44:14;;;;;;;;;;;;;;;21.28;46.73;100105.50;5033770;28;20149;-49
2022/06/21 06:46:46;;;;;;;3.22;0.70;;;;;;;21.46;47.65;100119.34;5033000;28;19948;-49
2022/06/21 06:49:19;;;;;;;2.55;0.80;;;;;;;21.65;47.31;100113.75;5033538;28;20852;-49
2022/06/21 06:51:57;;;;;;;4.38;0.50;;;;;;;21.79;46.75;100126.88;5034504;28;20041;-52
2022/06/21 06:54:51;;;;;;;1.10;0.40;;;;;;;21.92;46.05;100143.66;5034929;28;20076;-49
2022/06/21 06:57:43;;;;;;;2.17;0.60;;;;;;;21.94;45.32;100146.19;5035099;28;20064;-50
2022/06/21 07:00:18;;;;;;;3.03;0.50;;;;;;;21.89;45.90;100143.84;5031765;28;20369;-50
2022/06/21 07:02:53;;;;;;;2.05;0.55;;;;;;;21.94;45.72;100160.22;5034057;28;20512;-53
2022/06/21 07:05:31;;;;;;;1.48;0.43;;;;;;;21.88;46.10;100152.72;5041483;28;20045;-50
2022/06/21 07:08:05;;;;;;;2.03;0.80;;;;;;;21.70;46.35;100152.06;5033404;28;20072;-50
2022/06/21 07:10:39;;;;;;;2.90;1.10;;;;;;;21.56;47.04;100151.25;5033418;28;20045;-52
2022/06/21 07:13:08;;;;;;;7.85;0.70;;;;;;;21.44;47.36;100157.28;5033687;28;20104;-50
2022/06/21 07:15:41;;;;;;;3.38;0.60;;;;;;;21.23;47.28;100154.19;5032520;28;20072;-49
2022/06/21 07:18:19;;;;;;;1.17;0.50;;;;;;;21.01;48.08;100160.75;5032831;28;20132;-50
2022/06/21 07:20:47;;;;;;;4.28;1.00;;;;;;;21.01;48.45;100159.88;5033433;28;20045;-53
2022/06/21 07:23:22;;;;;;;4.88;0.80;;;;;;;20.89;48.94;100156.22;5031853;28;20047;-50
2022/06/21 07:25:57;;;;;;;5.43;1.15;;;;;;;20.89;48.93;100152.72;5031894;28;20049;-49
2022/06/21 07:28:38;;;;;;;7.00;1.15;;;;;;;20.79;49.07;100169.06;5032757;28;20049;-49
2022/06/21 07:31:15;;;;;;;4.32;0.90;;;;;;;20.67;49.37;100167.16;5032887;28;20136;-49
2022/06/21 07:33:50;;;;;;;2.58;0.70;;;;;;;20.61;49.74;100166.66;5032752;28;20053;-49
2022/06/21 07:36:35;;;;;;;5.43;1.13;;;;;;;20.62;49.83;100179.75;5032744;28;20542;-49
2022/06/21 07:39:16;;;;;;;3.13;0.82;;;;;;;20.69;49.67;100175.81;5031470;28;20132;-50
2022/06/21 07:41:54;;;;;;;4.35;1.02;;;;;;;20.86;49.64;100179.25;5032483;28;20057;-48
2022/06/21 07:44:29;;;;;;;3.90;0.93;;;;;;;21.01;49.61;100180.97;5033007;28;20064;-48
2022/06/21 07:47:03;;;;;;;5.47;0.90;;;;;;;21.20;49.72;100181.53;5029375;28;20061;-48
2022/06/21 07:49:39;;;;;;;4.30;1.33;;;;;;;21.31;49.22;100179.13;5030719;28;20099;-48
2022/06/21 07:52:19;;;;;;;6.55;1.02;;;;;;;21.45;49.25;100190.63;5032896;28;20122;-48
2022/06/21 07:54:57;;;;;;;7.95;1.90;;;;;;;21.66;49.17;100191.94;5035144;28;20049;-50
2022/06/21 07:57:31;;;;;;;4.88;1.10;;;;;;;21.96;48.62;100190.00;5027885;28;20083;-50
2022/06/21 08:00:02;;;;;;;3.90;0.82;;;;;;;22.10;48.02;100193.56;5032536;28;20053;-53
2022/06/21 08:08:17;;;;;;;7.28;1.65;;;;;;;23.04;46.72;100187.31;5027483;28;20179;-53
2022/06/21 08:10:49;;;;;;;6.65;1.10;;;;;;;23.34;46.04;100194.06;5029436;28;20045;-50
2022/06/21 08:13:32;;;;;;;4.82;0.95;;;;;;;23.51;45.26;100213.09;5030735;28;20042;-51
2022/06/21 08:16:07;;;;;;;5.55;1.17;;;;;;;23.50;45.13;100205.28;5029605;28;20049;-53
2022/06/21 08:18:44;;;;;;;2.05;0.75;;;;;;;23.33;45.14;100208.22;5028304;28;20050;-50
2022/06/21 08:21:17;;;;;;;5.78;1.40;;;;;;;23.08;45.88;100209.94;5028546;28;20378;-50
2022/06/21 08:23:49;;;;;;;13.98;1.40;;;;;;;22.77;46.35;100213.75;5026924;28;20056;-50
2022/06/21 08:26:21;;;;;;;5.53;1.05;;;;;;;22.47;47.01;100215.81;5030265;28;20057;-50
2022/06/21 08:28:57;;;;;;;12.30;1.40;;;;;;;22.22;47.08;100213.88;5029807;28;20069;-52
2022/06/21 08:31:32;;;;;;;7.03;2.92;;;;;;;21.98;47.59;100222.41;5017759;28;20045;-50
2022/06/21 08:34:06;;;;;;;1.73;0.85;;;;;;;21.74;48.02;100223.94;5027971;28;20048;-50
2022/06/21 08:36:43;;;;;;;3.55;0.70;;;;;;;21.54;48.37;100226.97;5029236;28;20120;-50
2022/06/21 08:39:22;;;;;;;5.43;0.90;;;;;;;21.33;48.70;100230.00;5028511;28;20500;-49
2022/06/21 08:42:28;;;;;;;5.40;0.82;;;;;;;21.16;48.34;100232.75;5029310;28;20046;-49
2022/06/21 08:45:47;;;;;;;4.13;0.90;;;;;;;20.93;48.96;100230.63;5025135;28;20049;-49
2022/06/21 08:49:21;;;;;;;7.97;0.90;;;;;;;20.73;49.95;100234.41;5022498;28;20064;-50
2022/06/21 08:52:28;;;;;;;5.05;0.90;;;;;;;20.63;50.34;100231.47;5024948;28;20091;-50
2022/06/21 08:55:15;;;;;;;3.53;0.90;;;;;;;20.52;50.57;100246.19;5029427;28;20366;-48
2022/06/21 08:57:50;;;;;;;3.38;1.05;;;;;;;20.38;50.44;100239.06;5027950;28;20061;-49
2022/06/21 09:00:33;;;;;;;3.05;0.80;;;;;;;20.42;50.89;100241.47;5030875;28;20049;-51
2022/06/21 09:03:31;;;;;;;3.72;0.82;;;;;;;20.48;50.35;100229.72;5029887;28;20151;-49
2022/06/21 09:06:18;;;;;;;5.13;0.90;;;;;;;20.49;50.56;100236.69;5016910;28;20459;-49
2022/06/21 09:09:13;;;;;;;7.18;1.00;;;;;;;20.51;50.65;100241.88;5027792;28;20057;-49
2022/06/21 09:11:49;;;;;;;;;;;;;;;20.34;50.56;100237.53;5027104;28;20050;-48
2022/06/21 09:14:57;;;;;;;3.83;0.95;;;;;;;20.28;51.15;100238.69;5019941;28;19963;-50
2022/06/21 09:17:47;;;;;;;4.75;0.98;;;;;;;20.29;51.82;100244.81;5021599;28;20131;-48
2022/06/21 09:20:29;;;;;;;5.05;0.90;;;;;;;20.28;51.90;100243.97;5028265;28;20123;-50
2022/06/21 09:23:11;;;;;;;4.88;0.98;;;;;;;20.29;52.18;100242.19;5027623;28;20049;-49
2022/06/21 09:25:46;;;;;;;3.60;0.82;;;;;;;20.25;51.87;100243.28;5025611;28;20144;-49
2022/06/21 09:28:32;;;;;;;3.92;0.70;;;;;;;20.23;51.63;100250.41;5030379;28;20096;-48
2022/06/21 09:31:08;;;;;;;2.60;0.90;;;;;;;20.25;51.72;100259.06;5030044;28;20473;-48
2022/06/21 09:33:49;;;;;;;1.85;1.05;;;;;;;20.28;51.56;100251.84;5029234;28;20056;-48
2022/06/21 09:36:29;;;;;;;3.97;1.15;;;;;;;20.29;51.73;100260.59;5027740;28;20486;-48
2022/06/21 09:39:13;;;;;;;2.20;0.90;;;;;;;20.30;52.14;100252.66;5026609;28;20369;-49
2022/06/21 09:41:50;;;;;;;3.53;1.17;;;;;;;20.34;52.48;100250.69;5025862;28;20761;-48
2022/06/21 09:44:26;;;;;;;5.53;0.90;;;;;;;20.34;52.62;100258.59;5028056;28;20055;-48
2022/06/21 09:47:03;;;;;;;3.85;0.75;;;;;;;20.38;52.80;100262.75;5023360;28;20064;-48
2022/06/21 09:49:43;;;;;;;2.83;0.93;;;;;;;20.36;52.54;100256.72;5029177;28;20051;-51
2022/06/21 09:52:24;;;;;;;4.88;0.95;;;;;;;20.34;51.97;100264.69;5024885;28;20057;-48
2022/06/21 09:55:01;;;;;;;3.53;0.90;;;;;;;20.33;51.57;100272.69;5029775;28;20049;-47
2022/06/21 09:57:35;;;;;;;2.47;0.88;;;;;;;20.35;51.18;100270.81;5029639;28;20060;-48
2022/06/21 10:00:08;;;;;;;6.63;1.13;;;;;;;20.28;51.26;100280.81;5028569;28;20056;-48
2022/06/21 10:02:47;;;;;;;19.40;2.13;;;;;;;20.28;51.75;100279.97;5029229;28;20145;-48
2022/06/21 10:05:21;;;;;;;4.45;1.13;;;;;;;20.28;51.49;100291.34;5028783;28;20421;-49
2022/06/21 10:08:05;;;;;;;13.55;1.48;;;;;;;20.23;51.57;100292.53;5028709;28;20172;-48
2022/06/21 10:10:45;;;;;;;3.80;0.93;;;;;;;20.25;51.32;100293.28;5028767;28;20642;-48
2022/06/21 10:13:37;;;;;;;2.08;0.82;;;;;;;20.26;50.95;100292.34;5029480;28;20053;-50
2022/06/21 10:16:20;;;;;;;6.53;1.13;;;;;;;20.33;51.26;100289.31;5027042;28;20064;-48
2022/06/21 10:19:12;;;;;;;7.20;1.23;;;;;;;20.45;51.08;100287.81;5028167;28;20518;-48
2022/06/21 10:22:03;;;;;;;5.68;1.10;;;;;;;20.60;50.81;100299.25;5024691;28;20052;-48
2022/06/21 10:24:57;;;;;;;6.25;1.40;;;;;;;20.66;49.76;100291.88;5027685;28;20103;-48
2022/06/21 10:27:53;;;;;;;6.18;1.10;;;;;;;20.68;50.06;100305.78;5027362;28;20390;-48
2022/06/21 10:30:39;;;;;;;3.85;0.90;;;;;;;20.74;50.02;100304.59;5015293;28;20069;-48
2022/06/21 10:33:24;;;;;;;2.33;0.98;;;;;;;20.77;50.09;100305.25;5028584;28;20204;-48
2022/06/21 10:36:09;;;;;;;4.40;0.80;;;;;;;20.87;50.26;100307.41;5029439;28;20049;-48
2022/06/21 10:39:03;;;;;;;2.90;1.05;;;;;;;20.91;49.07;100314.19;5027642;28;20059;-51
2022/06/21 10:41:40;;;;;;;3.28;0.95;;;;;;;20.97;49.35;100316.47;5022555;28;20053;-48
2022/06/21 10:44:26;;;;;;;7.82;1.23;;;;;;;20.99;49.06;100319.84;5017224;28;20486;-48
2022/06/21 10:47:02;;;;;;;3.13;0.80;;;;;;;20.96;49.11;100326.16;5022886;28;20061;-49
2022/06/21 10:50:07;;;;;;;4.80;1.10;;;;;;;20.97;49.02;100322.59;5024394;28;20056;-49
2022/06/21 10:52:56;;;;;;;2.08;0.75;;;;;;;20.95;49.03;100334.16;5020268;28;20119;-48
2022/06/21 10:57:08;;;;;;;1.33;0.70;;;;;;;20.96;49.03;100341.97;5029659;28;20052;-48
2022/06/21 10:58:55;;;;;;;3.03;0.80;;;;;;;20.90;48.87;100341.47;5029894;28;20053;-51
2022/06/21 11:01:31;;;;;;;2.83;0.88;;;;;;;20.86;49.05;100347.84;5032681;28;20514;-52
2022/06/21 11:04:36;;;;;;;2.85;0.65;;;;;;;20.80;47.81;100341.97;5032567;28;20073;-49
2022/06/21 11:07:17;;;;;;;2.00;0.83;;;;;;;20.79;48.53;100353.44;5025280;28;20073;-50
2022/06/21 11:09:55;;;;;;;4.72;0.85;;;;;;;20.80;48.54;100356.91;5032026;28;20063;-48
2022/06/21 11:15:42;;;;;;;1.80;0.70;;;;;;;20.82;49.27;100356.88;5033876;28;20536;-49
2022/06/21 11:18:32;;;;;;;6.50;2.08;;;;;;;20.84;49.53;100347.09;5034798;28;20152;-48
2022/06/21 11:21:12;;;;;;;2.13;0.80;;;;;;;20.80;49.00;100341.97;5030191;28;20076;-50
2022/06/21 11:23:52;;;;;;;3.72;0.90;;;;;;;20.79;49.13;100350.81;5030359;28;20045;-51
2022/06/21 11:26:35;;;;;;;3.63;0.80;;;;;;;20.80;49.07;100354.28;5033662;28;20076;-53
2022/06/21 11:29:21;;;;;;;3.30;1.08;;;;;;;20.82;49.40;100348.97;5034280;28;20057;-55
2022/06/21 11:31:59;;;;;;;1.70;0.80;;;;;;;20.85;49.59;100339.09;5033261;28;20049;-55
2022/06/21 11:34:41;;;;;;;3.40;1.20;;;;;;;20.91;49.80;100343.16;5034177;28;20050;-52
2022/06/21 11:37:20;;;;;;;5.13;0.77;;;;;;;20.92;49.88;100358.03;5033552;28;20760;-54
2022/06/21 11:39:56;;;;;;;4.60;0.82;;;;;;;20.92;49.76;100353.63;5033400;28;20072;-53
2022/06/21 11:42:26;;;;;;;3.60;0.73;;;;;;;20.96;49.69;100362.19;5033634;28;20058;-52
2022/06/21 11:45:49;;;;;;;6.57;0.85;;;;;;;20.99;48.72;100377.81;5032248;28;20072;-51
2022/06/21 11:49:09;;;;;;;4.85;0.70;;;;;;;20.96;49.91;100373.56;5032699;28;20049;-50
2022/06/21 11:52:04;;;;;;;6.03;0.80;;;;;;;20.97;49.23;100379.69;5032812;28;20537;-53
2022/06/21 11:54:40;;;;;;;1.40;0.60;;;;;;;20.91;49.76;100369.50;5031947;28;20056;-51
2022/06/21 11:57:20;;;;;;;1.58;0.60;;;;;;;20.94;50.25;100364.06;5031826;28;20053;-55
2022/06/21 11:59:56;;;;;;;4.20;0.93;;;;;;;20.90;50.04;100373.09;5032744;28;20135;-51
2022/06/21 12:02:35;;;;;;;5.78;0.70;;;;;;;20.90;50.02;100376.56;5031931;28;20128;-50
2022/06/21 12:05:23;;;;;;;4.65;0.60;;;;;;;20.97;49.26;100358.63;5031834;28;20057;-50
2022/06/21 12:08:01;;;;;;;6.75;0.57;;;;;;;21.01;49.43;100365.41;5030283;28;20485;-51
2022/06/21 12:10:47;;;;;;;1.15;0.50;;;;;;;21.10;48.56;100380.69;5032428;28;20494;-52
2022/06/21 12:13:27;;;;;;;;;;;;;;;21.17;48.21;100383.81;5032404;28;20417;-51
2022/06/21 12:16:29;;;;;;;2.20;0.50;;;;;;;21.29;48.23;100391.91;5032448;28;19936;-53
2022/06/21 12:19:05;;;;;;;0.63;0.32;;;;;;;21.31;47.86;100395.28;5018315;28;20064;-55
2022/06/21 12:21:38;;;;;;;3.00;0.60;;;;;;;21.28;47.98;100395.47;5031821;28;20061;-54
2022/06/21 12:24:10;;;;;;;2.10;0.63;;;;;;;21.32;48.05;100402.25;5032062;28;20098;-51
2022/06/21 12:26:41;;;;;;;1.70;0.63;;;;;;;21.36;47.63;100408.22;5032032;28;20052;-52
2022/06/21 12:29:15;;;;;;;1.52;0.55;;;;;;;21.36;46.88;100397.69;5031998;28;20052;-54
2022/06/21 12:31:51;;;;;;;5.00;0.60;;;;;;;21.33;46.89;100417.16;5032322;28;20457;-54